Time;durP1;ratioP1;P1;durP2;ratioP2;P2;SDS_P1;SDS_P2;PMS_P1;PMS_P2;Temp;Humidity;BMP_temperature;BMP_pressure;BME280_temperature;BME280_humidity;BME280_pressure;Samples;Min_cycle;Max_cycle;Signal;HPM_P1;HPM_P2
2021/11/08 00:00:45;;;;;;;19.60;5.90;;;;;;;8.43;76.45;100395.97;5097292;28;20164;-61
2021/11/08 00:03:14;;;;;;;17.88;5.80;;;;;;;8.43;76.67;100394.28;5080819;28;20047;-63
2021/11/08 00:05:43;;;;;;;26.23;7.72;;;;;;;8.43;76.51;100396.84;5097557;28;20088;-61
2021/11/08 00:08:09;;;;;;;23.48;6.57;;;;;;;8.41;76.49;100395.94;5115834;28;20048;-61
2021/11/08 00:10:38;;;;;;;17.45;6.13;;;;;;;8.42;76.83;100397.69;5115468;28;20403;-62
2021/11/08 00:13:07;;;;;;;22.75;6.85;;;;;;;8.40;76.84;100401.91;5097195;28;20028;-61
2021/11/08 00:20:52;;;;;;;26.02;6.32;;;;;;;8.38;76.70;100399.31;5097066;28;20070;-61
2021/11/08 00:23:21;;;;;;;21.83;6.15;;;;;;;8.38;76.75;100393.25;5130284;27;20110;-62
2021/11/08 00:25:49;;;;;;;15.75;6.28;;;;;;;8.39;76.75;100387.25;5115493;28;20131;-62
2021/11/08 00:28:18;;;;;;;20.23;6.10;;;;;;;8.37;76.44;100386.31;5080861;28;20030;-62
2021/11/08 00:30:46;;;;;;;22.73;6.55;;;;;;;8.38;76.62;100385.50;5115369;28;20036;-62
2021/11/08 00:33:17;;;;;;;15.20;6.20;;;;;;;8.37;76.72;100389.78;5115049;28;20042;-62
2021/11/08 00:35:44;;;;;;;18.92;7.25;;;;;;;8.36;76.67;100390.63;5115237;28;20501;-62
2021/11/08 00:38:11;;;;;;;29.17;7.28;;;;;;;8.36;76.61;100381.97;5114995;28;20493;-62
2021/11/08 00:40:37;;;;;;;21.45;5.93;;;;;;;8.36;76.69;100384.56;5115049;28;20035;-62
2021/11/08 00:43:03;;;;;;;19.20;7.05;;;;;;;8.36;76.34;100389.72;5115092;28;20028;-62
2021/11/08 00:45:32;;;;;;;18.73;6.53;;;;;;;8.36;76.50;100397.47;5115342;28;20046;-62
2021/11/08 00:47:58;;;;;;;22.85;7.20;;;;;;;8.36;76.74;100395.78;5096882;28;20031;-61
2021/11/08 00:50:24;;;;;;;20.38;7.38;;;;;;;8.34;76.70;100402.63;5079895;28;20035;-62
2021/11/08 00:52:50;;;;;;;16.55;6.03;;;;;;;8.35;76.54;100406.94;5114695;28;20036;-62
2021/11/08 00:55:16;;;;;;;22.60;6.68;;;;;;;8.35;76.45;100401.78;5114571;28;20521;-62
2021/11/08 00:57:45;;;;;;;18.70;5.57;;;;;;;8.35;76.74;100406.94;5114711;28;20035;-62
2021/11/08 01:00:13;;;;;;;16.95;7.55;;;;;;;8.35;76.56;100398.31;5115092;28;20108;-61
2021/11/08 01:02:40;;;;;;;19.98;7.43;;;;;;;8.35;76.53;100403.47;5096368;28;20032;-63
2021/11/08 01:05:07;;;;;;;16.45;6.75;;;;;;;8.34;76.72;100407.78;5096964;28;20039;-61
2021/11/08 01:07:35;;;;;;;22.10;7.00;;;;;;;8.33;76.69;100412.91;5114594;28;20035;-62
2021/11/08 01:10:04;;;;;;;29.30;8.13;;;;;;;8.34;76.44;100415.53;5114581;28;20036;-62
2021/11/08 01:12:29;;;;;;;21.50;7.10;;;;;;;8.33;76.72;100407.75;5097179;28;20043;-61
2021/11/08 01:14:57;;;;;;;21.42;6.57;;;;;;;8.32;76.56;100414.59;5096765;28;20067;-62
2021/11/08 01:17:23;;;;;;;22.52;7.03;;;;;;;8.31;76.74;100411.97;5114520;28;20071;-62
2021/11/08 01:19:50;;;;;;;21.10;6.32;;;;;;;8.30;76.47;100411.09;5114295;28;20126;-61
2021/11/08 01:22:17;;;;;;;22.30;7.32;;;;;;;8.29;76.33;100414.50;5096209;28;20027;-62
2021/11/08 01:24:56;;;;;;;20.52;7.35;;;;;;;8.27;76.63;100413.56;5096022;28;20088;-62
2021/11/08 01:27:31;;;;;;;22.35;6.25;;;;;;;8.27;76.69;100407.53;5114457;28;20077;-61
2021/11/08 01:29:58;;;;;;;15.20;6.85;;;;;;;8.26;76.27;100418.69;5114250;28;20036;-61
2021/11/08 01:32:23;;;;;;;19.70;6.68;;;;;;;8.22;76.35;100421.19;5113878;28;20063;-62
2021/11/08 01:34:49;;;;;;;24.25;6.90;;;;;;;8.24;76.21;100429.00;5113402;28;20506;-62
2021/11/08 01:37:18;;;;;;;21.40;7.13;;;;;;;8.21;76.45;100424.59;5096666;28;20035;-62
2021/11/08 01:39:44;;;;;;;20.60;6.53;;;;;;;8.20;76.40;100422.81;5096135;28;20043;-61
2021/11/08 01:42:14;;;;;;;21.70;6.72;;;;;;;8.20;76.42;100424.56;5114416;28;20059;-61
2021/11/08 01:44:41;;;;;;;23.95;6.90;;;;;;;8.19;76.74;100420.22;5114156;28;20069;-62
2021/11/08 01:47:10;;;;;;;17.52;6.05;;;;;;;8.19;76.12;100427.97;5096017;28;20080;-62
2021/11/08 01:49:38;;;;;;;22.73;7.93;;;;;;;8.17;76.25;100422.75;5095879;28;20042;-62
2021/11/08 01:52:06;;;;;;;18.73;6.80;;;;;;;8.17;76.25;100424.44;5114228;28;20058;-62
2021/11/08 01:54:32;;;;;;;16.95;6.97;;;;;;;8.17;76.53;100427.03;5113570;28;20505;-61
2021/11/08 01:56:58;;;;;;;21.88;7.97;;;;;;;8.16;76.23;100422.69;5113798;28;20035;-61
2021/11/08 01:59:25;;;;;;;26.20;8.98;;;;;;;8.15;76.28;100419.25;5129481;28;20043;-61
2021/11/08 02:01:53;;;;;;;21.75;7.03;;;;;;;8.15;76.36;100408.91;5096051;28;20035;-61
2021/11/08 02:04:19;;;;;;;25.52;6.60;;;;;;;8.13;76.22;100413.16;5130055;27;20044;-61
2021/11/08 02:06:48;;;;;;;21.98;7.25;;;;;;;8.14;76.28;100414.00;5095756;28;20064;-61
2021/11/08 02:09:14;;;;;;;23.83;7.97;;;;;;;8.13;76.22;100413.16;5095957;28;20027;-62
2021/11/08 02:11:41;;;;;;;18.88;7.28;;;;;;;8.12;76.17;100419.13;5113766;28;20036;-61
2021/11/08 02:14:06;;;;;;;20.95;7.93;;;;;;;8.12;76.30;100413.09;5095595;28;20043;-61
2021/11/08 02:16:34;;;;;;;25.55;7.35;;;;;;;8.10;76.10;100413.03;5129455;28;20040;-62
2021/11/08 02:19:02;;;;;;;27.42;8.40;;;;;;;8.11;76.15;100426.81;5078867;28;20486;-62
2021/11/08 02:21:29;;;;;;;20.05;7.63;;;;;;;8.10;76.33;100419.94;5113508;28;20078;-61
2021/11/08 02:23:55;;;;;;;26.90;8.38;;;;;;;8.09;76.33;100419.03;5095468;28;20032;-61
2021/11/08 02:26:21;;;;;;;23.77;7.63;;;;;;;8.10;76.25;100420.78;5113718;28;20036;-61
2021/11/08 02:28:50;;;;;;;19.98;7.47;;;;;;;8.10;75.99;100412.19;5129642;28;20168;-61
2021/11/08 02:31:19;;;;;;;23.55;7.22;;;;;;;8.09;76.14;100424.19;5129591;28;20067;-62
2021/11/08 02:33:46;;;;;;;27.35;6.82;;;;;;;8.07;76.00;100419.00;5113435;28;20059;-61
2021/11/08 02:36:13;;;;;;;19.15;6.97;;;;;;;8.07;76.27;100419.00;5114041;28;20543;-61
2021/11/08 02:38:43;;;;;;;21.67;7.30;;;;;;;8.07;75.87;100423.25;5113485;28;20115;-61
2021/11/08 02:41:09;;;;;;;21.40;6.35;;;;;;;8.07;76.36;100424.16;5078534;28;20119;-61
2021/11/08 02:43:36;;;;;;;24.17;8.27;;;;;;;8.06;76.13;100424.09;5113326;28;20126;-61
2021/11/08 02:46:15;;;;;;;15.77;6.30;;;;;;;8.04;75.89;100429.22;5095488;28;20040;-62
2021/11/08 02:48:44;;;;;;;16.92;7.45;;;;;;;8.04;76.10;100431.81;5099454;28;20042;-61
2021/11/08 02:53:46;;;;;;;28.33;8.60;;;;;;;8.02;76.17;100430.00;5117390;28;20031;-62
2021/11/08 02:56:14;;;;;;;31.63;7.80;;;;;;;8.00;76.10;100427.34;5116977;28;20046;-61
2021/11/08 02:58:42;;;;;;;23.65;7.38;;;;;;;8.01;76.06;100420.50;5098937;28;20505;-61
2021/11/08 03:01:09;;;;;;;22.27;7.35;;;;;;;8.00;75.89;100421.34;5117449;28;20043;-62
2021/11/08 03:03:44;;;;;;;22.67;8.02;;;;;;;7.98;75.91;100418.69;5098520;28;20036;-61
2021/11/08 03:08:48;;;;;;;23.58;7.45;;;;;;;7.97;75.90;100421.22;5116990;28;20108;-62
2021/11/08 03:11:14;;;;;;;22.75;7.85;;;;;;;7.96;76.06;100414.31;5116887;28;20036;-61
2021/11/08 03:13:50;;;;;;;23.17;7.68;;;;;;;7.96;76.11;100414.31;5117109;28;20077;-61
2021/11/08 03:16:25;;;;;;;25.35;7.75;;;;;;;7.95;75.98;100421.16;5081631;28;20494;-61
2021/11/08 03:18:56;;;;;;;33.22;8.52;;;;;;;7.96;75.95;100422.06;5099008;28;20032;-61
2021/11/08 03:21:22;;;;;;;26.33;7.93;;;;;;;7.93;75.77;100426.28;5098329;28;20040;-61
2021/11/08 03:23:50;;;;;;;17.50;6.22;;;;;;;7.96;75.87;100425.50;5098519;28;20115;-61
2021/11/08 03:29:00;;;;;;;20.95;6.97;;;;;;;7.95;75.84;100423.75;5116683;28;20040;-61
2021/11/08 03:31:28;;;;;;;20.92;7.18;;;;;;;7.98;75.93;100425.56;5116055;28;20038;-62
2021/11/08 03:33:58;;;;;;;17.65;6.50;;;;;;;7.96;76.02;100428.06;5115962;28;20032;-61
2021/11/08 03:36:23;;;;;;;17.38;6.55;;;;;;;7.96;75.75;100430.66;5116455;28;20035;-61
2021/11/08 03:38:49;;;;;;;22.27;6.95;;;;;;;7.96;75.97;100427.22;5116243;28;20042;-61
2021/11/08 03:41:14;;;;;;;14.93;6.13;;;;;;;7.94;75.93;100432.34;5115912;28;20483;-62
2021/11/08 03:43:40;;;;;;;22.67;6.85;;;;;;;7.92;75.92;100432.28;5116456;28;20382;-61
2021/11/08 03:46:06;;;;;;;23.77;6.88;;;;;;;7.91;75.47;100440.84;5116067;28;20082;-61
2021/11/08 03:48:32;;;;;;;26.20;6.93;;;;;;;7.93;76.05;100444.34;5115680;28;20032;-61
2021/11/08 03:50:58;;;;;;;19.08;7.07;;;;;;;7.91;75.75;100434.81;5097938;28;20095;-62
2021/11/08 03:53:24;;;;;;;17.25;6.80;;;;;;;7.88;75.77;100438.16;5131935;27;20498;-61
2021/11/08 03:55:52;;;;;;;18.13;7.10;;;;;;;7.88;75.71;100438.16;5081248;28;20034;-61
2021/11/08 03:58:18;;;;;;;21.73;7.10;;;;;;;7.87;75.99;100440.69;5115516;28;20041;-62
2021/11/08 04:00:43;;;;;;;22.92;6.80;;;;;;;7.87;75.49;100443.28;5093752;28;20055;-61
2021/11/08 04:03:11;;;;;;;23.08;6.90;;;;;;;7.87;75.59;100448.44;5095473;28;20032;-61
2021/11/08 04:05:39;;;;;;;32.47;7.88;;;;;;;7.85;75.66;100448.41;5094359;28;20032;-61
2021/11/08 04:08:16;;;;;;;20.17;7.05;;;;;;;7.85;75.65;100447.50;5093948;28;20032;-62
2021/11/08 04:10:43;;;;;;;32.42;7.10;;;;;;;7.84;75.87;100445.75;5095527;28;20109;-61
2021/11/08 04:13:09;;;;;;;21.83;7.47;;;;;;;7.85;75.79;100457.81;5094151;28;20058;-61
2021/11/08 04:15:40;;;;;;;21.65;7.50;;;;;;;7.83;75.90;100462.94;5095075;28;20109;-61
2021/11/08 04:18:10;;;;;;;22.15;7.57;;;;;;;7.82;75.63;100453.44;5077895;28;20068;-62
2021/11/08 04:20:37;;;;;;;32.03;8.57;;;;;;;7.83;75.66;100459.47;5094165;28;20063;-61
2021/11/08 04:23:03;;;;;;;20.52;7.90;;;;;;;7.83;75.80;100459.47;5095084;28;20115;-61
2021/11/08 04:25:29;;;;;;;22.73;6.60;;;;;;;7.81;75.85;100454.28;5094737;28;20119;-61
2021/11/08 04:27:56;;;;;;;29.58;9.57;;;;;;;7.80;75.68;100451.63;5093838;28;20032;-61
2021/11/08 04:30:22;;;;;;;23.33;8.63;;;;;;;7.81;75.69;100459.44;5076591;28;20406;-62
2021/11/08 04:36:08;;;;;;;33.58;9.13;;;;;;;7.80;75.49;100464.53;5094625;28;20380;-61
2021/11/08 04:41:10;;;;;;;24.90;8.68;;;;;;;7.80;75.75;100470.56;5094780;28;20024;-61
2021/11/08 04:43:51;;;;;;;22.20;7.72;;;;;;;7.80;75.41;100456.78;5095161;28;20043;-61
2021/11/08 04:49:01;;;;;;;17.27;6.95;;;;;;;7.80;75.81;100464.53;5094627;28;20403;-61
2021/11/08 05:31:44;;;;;;;25.15;10.15;;;;;;;7.76;75.40;100481.59;5110470;28;20493;-61
2021/11/08 05:34:10;;;;;;;24.45;9.43;;;;;;;7.76;75.67;100481.59;5109211;28;20059;-61
2021/11/08 05:36:36;;;;;;;24.70;10.50;;;;;;;7.75;75.64;100482.44;5109523;28;20483;-61
2021/11/08 05:39:04;;;;;;;23.30;8.85;;;;;;;7.75;75.68;100485.00;5110654;28;20028;-61
2021/11/08 05:41:30;;;;;;;20.45;8.48;;;;;;;7.75;75.58;100483.31;5110413;28;20044;-61
2021/11/08 05:43:56;;;;;;;26.30;9.98;;;;;;;7.75;75.46;100488.47;5109796;28;20126;-61
2021/11/08 05:46:24;;;;;;;24.27;9.55;;;;;;;7.75;75.54;100498.81;5109184;28;20127;-61
2021/11/08 05:48:53;;;;;;;24.73;8.65;;;;;;;7.73;75.81;100496.97;5110648;28;20035;-62
2021/11/08 05:51:18;;;;;;;19.95;8.90;;;;;;;7.73;75.54;100500.44;5110499;28;20130;-61
2021/11/08 05:53:48;;;;;;;21.23;8.65;;;;;;;7.72;75.57;100498.69;5110595;28;20471;-61
2021/11/08 05:56:47;;;;;;;31.20;9.20;;;;;;;7.72;75.52;100495.22;5109610;28;20402;-61
2021/11/08 06:50:38;;;;;;;25.83;8.45;;;;;;;7.64;75.62;100548.25;5096178;28;20089;-61
2021/11/08 06:53:07;;;;;;;19.25;8.77;;;;;;;7.63;75.58;100549.94;5095421;28;20040;-61
2021/11/08 06:55:34;;;;;;;27.85;8.82;;;;;;;7.62;75.37;100546.50;5095691;28;20039;-61
2021/11/08 06:58:03;;;;;;;25.73;9.57;;;;;;;7.62;75.53;100550.81;5095334;28;20491;-61
2021/11/08 07:00:30;;;;;;;29.45;8.93;;;;;;;7.62;75.55;100551.66;5095514;28;20119;-61
2021/11/08 07:02:58;;;;;;;28.20;9.25;;;;;;;7.62;75.52;100556.81;5094112;28;20474;-61
2021/11/08 07:05:24;;;;;;;32.65;10.35;;;;;;;7.62;75.85;100561.13;5095521;28;20550;-61
2021/11/08 07:07:53;;;;;;;26.42;9.93;;;;;;;7.64;75.82;100561.16;5095399;28;20139;-61
2021/11/08 07:10:20;;;;;;;22.35;8.88;;;;;;;7.62;75.47;100561.13;5094082;28;20036;-61
2021/11/08 07:12:51;;;;;;;22.92;9.25;;;;;;;7.62;75.44;100569.72;5095358;28;20040;-61
2021/11/08 07:15:19;;;;;;;27.10;10.30;;;;;;;7.60;75.95;100560.19;5094854;28;20043;-61
2021/11/08 07:17:46;;;;;;;21.60;9.23;;;;;;;7.59;75.33;100558.44;5094497;28;20123;-61
2021/11/08 07:20:11;;;;;;;21.02;8.68;;;;;;;7.57;75.71;100562.66;5094015;28;20495;-61
2021/11/08 07:22:37;;;;;;;23.30;10.18;;;;;;;7.57;75.59;100558.34;5093467;28;20109;-61
2021/11/08 07:25:06;;;;;;;30.25;10.73;;;;;;;7.56;75.37;100551.44;5094835;28;20430;-62
2021/11/08 07:27:32;;;;;;;22.13;9.68;;;;;;;7.55;75.60;100560.00;5094936;28;20040;-61
2021/11/08 07:29:57;;;;;;;26.63;9.38;;;;;;;7.55;75.23;100566.88;5094383;28;20043;-62
2021/11/08 07:32:25;;;;;;;20.92;8.20;;;;;;;7.55;75.52;100572.03;5093430;28;20468;-62
2021/11/08 07:34:54;;;;;;;21.63;9.13;;;;;;;7.53;75.23;100569.41;5095037;28;20119;-62
2021/11/08 07:37:20;;;;;;;29.70;11.10;;;;;;;7.54;75.65;100572.84;5093294;28;20388;-62
2021/11/08 07:39:46;;;;;;;32.17;10.27;;;;;;;7.54;75.34;100571.16;5094541;28;20119;-62
2021/11/08 07:42:12;;;;;;;32.00;11.02;;;;;;;7.53;75.36;100573.66;5093423;28;20540;-62
2021/11/08 07:44:38;;;;;;;24.38;10.18;;;;;;;7.55;75.45;100561.72;5126886;27;20036;-62
2021/11/08 07:47:04;;;;;;;25.52;10.27;;;;;;;7.54;75.43;100559.94;5094273;28;20048;-62
2021/11/08 07:49:29;;;;;;;27.88;9.85;;;;;;;7.53;75.58;100564.25;5094924;28;20101;-62
2021/11/08 07:51:55;;;;;;;33.67;10.05;;;;;;;7.53;75.62;100574.56;5093815;28;20032;-62
2021/11/08 07:54:23;;;;;;;24.08;11.25;;;;;;;7.53;75.35;100573.66;5094565;28;20040;-62
2021/11/08 07:56:48;;;;;;;35.55;9.65;;;;;;;7.52;75.32;100570.22;5094221;28;20028;-62
2021/11/08 07:59:18;;;;;;;25.15;9.70;;;;;;;7.54;75.52;100578.91;5094354;28;20043;-62
2021/11/08 08:01:47;;;;;;;26.65;10.27;;;;;;;7.53;75.79;100582.31;5093975;28;20036;-62
2021/11/08 08:04:13;;;;;;;27.65;10.32;;;;;;;7.54;75.74;100585.75;5094226;28;20071;-61
2021/11/08 08:06:39;;;;;;;26.52;9.82;;;;;;;7.56;75.81;100586.69;5094157;28;20548;-61
2021/11/08 08:09:05;;;;;;;29.15;10.82;;;;;;;7.55;75.82;100588.38;5093011;28;20118;-61
2021/11/08 08:11:32;;;;;;;27.17;10.98;;;;;;;7.55;75.68;100588.38;5092560;28;20032;-61
2021/11/08 08:13:57;;;;;;;31.77;10.98;;;;;;;7.56;75.64;100589.25;5092786;28;20144;-61
2021/11/08 08:16:23;;;;;;;30.70;10.68;;;;;;;7.57;75.83;100597.03;5093783;28;20493;-61
2021/11/08 08:18:51;;;;;;;23.70;10.13;;;;;;;7.56;76.03;100599.56;5076209;28;20062;-61
2021/11/08 08:21:18;;;;;;;34.47;11.52;;;;;;;7.55;75.28;100605.56;5092607;28;20032;-61
2021/11/08 08:23:48;;;;;;;39.55;11.32;;;;;;;7.56;75.73;100609.91;5093943;28;20548;-61
2021/11/08 08:26:14;;;;;;;39.45;11.35;;;;;;;7.56;75.68;100610.75;5092519;28;20410;-61
2021/11/08 08:28:40;;;;;;;35.42;11.32;;;;;;;7.58;76.03;100610.84;5092311;28;20051;-61
2021/11/08 08:31:06;;;;;;;33.40;11.23;;;;;;;7.58;75.57;100614.28;5093836;28;20036;-62
2021/11/08 08:33:33;;;;;;;29.98;11.43;;;;;;;7.59;75.93;100612.59;5093616;28;20471;-61
2021/11/08 08:35:59;;;;;;;44.42;13.45;;;;;;;7.60;76.07;100620.38;5094013;28;20079;-62
2021/11/08 08:38:27;;;;;;;40.63;12.35;;;;;;;7.61;75.92;100622.16;5093661;28;20055;-62
2021/11/08 08:40:55;;;;;;;26.15;10.40;;;;;;;7.62;76.04;100623.91;5093705;28;20039;-62
2021/11/08 08:43:24;;;;;;;26.98;10.80;;;;;;;7.63;76.04;100619.59;5091799;28;20048;-61
2021/11/08 08:45:52;;;;;;;33.70;11.55;;;;;;;7.66;76.32;100634.34;5093597;28;20039;-62
2021/11/08 08:48:23;;;;;;;26.58;9.98;;;;;;;7.65;75.95;100615.38;5093266;28;20522;-62
2021/11/08 08:50:48;;;;;;;32.20;9.95;;;;;;;7.67;75.88;100625.78;5093754;28;20065;-61
2021/11/08 08:53:18;;;;;;;28.55;10.55;;;;;;;7.67;75.73;100636.09;5092017;28;20125;-61
2021/11/08 08:55:46;;;;;;;29.25;9.75;;;;;;;7.67;76.32;100631.81;5092351;28;20028;-61
2021/11/08 08:58:12;;;;;;;26.65;10.00;;;;;;;7.69;76.13;100621.56;5093227;28;20040;-62
2021/11/08 09:00:44;;;;;;;34.55;12.30;;;;;;;7.69;75.73;100626.72;5093301;28;20082;-62
2021/11/08 09:03:18;;;;;;;28.30;9.75;;;;;;;7.70;75.91;100629.34;5093149;28;20044;-61
2021/11/08 09:05:45;;;;;;;29.63;10.30;;;;;;;7.70;76.17;100628.47;5093166;28;20032;-60
2021/11/08 09:08:14;;;;;;;42.80;11.93;;;;;;;7.71;75.87;100630.22;5093415;28;20119;-60
2021/11/08 09:10:40;;;;;;;36.00;11.65;;;;;;;7.71;75.89;100633.69;5091871;28;20032;-60
2021/11/08 09:13:06;;;;;;;31.35;11.27;;;;;;;7.72;75.96;100639.72;5092579;28;20032;-61
2021/11/08 09:15:35;;;;;;;54.67;15.73;;;;;;;7.71;75.90;100636.25;5092247;28;20434;-61
2021/11/08 09:18:03;;;;;;;133.00;27.33;;;;;;;7.74;76.13;100641.53;5092148;28;20040;-62
2021/11/08 09:20:32;;;;;;;68.63;19.17;;;;;;;7.75;76.06;100653.63;5093205;28;20040;-62
2021/11/08 09:23:06;;;;;;;61.75;13.98;;;;;;;7.78;76.13;100658.00;5074829;28;20040;-63
2021/11/08 09:25:35;;;;;;;49.78;13.35;;;;;;;7.77;76.07;100652.00;5092397;28;20031;-63
2021/11/08 09:28:05;;;;;;;43.83;12.73;;;;;;;7.80;75.95;100650.31;5075574;28;20047;-62
2021/11/08 09:30:41;;;;;;;54.83;14.18;;;;;;;7.81;76.42;100652.06;5074982;28;20376;-63
2021/11/08 09:33:16;;;;;;;65.18;16.90;;;;;;;7.83;76.00;100658.19;5093116;28;20471;-63
2021/11/08 09:35:48;;;;;;;95.03;24.77;;;;;;;7.83;76.04;100651.34;5075045;28;20024;-63
2021/11/08 09:38:21;;;;;;;63.30;17.33;;;;;;;7.84;76.34;100663.41;5075793;28;20047;-63
2021/11/08 09:40:51;;;;;;;73.50;17.00;;;;;;;7.86;76.10;100664.31;5096933;28;20529;-63
2021/11/08 09:43:24;;;;;;;69.68;19.35;;;;;;;7.87;75.89;100673.81;5097043;28;20036;-63
2021/11/08 09:45:53;;;;;;;58.63;16.00;;;;;;;7.88;76.33;100673.00;5096920;28;20503;-62
2021/11/08 09:48:27;;;;;;;60.97;16.02;;;;;;;7.90;75.96;100665.34;5078493;28;20092;-63
2021/11/08 09:51:01;;;;;;;48.22;15.30;;;;;;;7.90;76.26;100658.47;5096985;28;20522;-62
2021/11/08 09:54:13;;;;;;;54.65;16.60;;;;;;;7.92;76.34;100661.97;5131519;27;20143;-62
2021/11/08 09:56:45;;;;;;;50.92;14.15;;;;;;;7.93;76.10;100668.91;5096359;28;20510;-64
2021/11/08 09:59:16;;;;;;;47.40;14.93;;;;;;;7.96;76.19;100672.44;5096765;28;20039;-64
2021/11/08 10:01:49;;;;;;;48.17;14.02;;;;;;;7.96;76.25;100669.84;5113800;28;20046;-63
2021/11/08 10:04:19;;;;;;;44.55;12.98;;;;;;;7.96;76.01;100673.28;5113658;28;20035;-63
2021/11/08 10:06:56;;;;;;;44.97;12.45;;;;;;;7.97;76.15;100674.19;5113436;28;20042;-62
2021/11/08 10:09:24;;;;;;;35.13;11.98;;;;;;;7.97;76.16;100669.88;5131374;28;20063;-63
2021/11/08 10:11:55;;;;;;;35.15;11.15;;;;;;;7.99;76.15;100672.53;5131673;28;20040;-62
2021/11/08 10:14:23;;;;;;;36.15;12.13;;;;;;;7.99;76.47;100668.25;5131759;28;20045;-63
2021/11/08 10:16:58;;;;;;;34.22;11.82;;;;;;;8.01;76.21;100670.91;5131029;28;20092;-63
2021/11/08 10:19:26;;;;;;;42.20;11.52;;;;;;;8.02;76.16;100673.53;5113203;28;20478;-63
2021/11/08 10:22:01;;;;;;;27.63;10.57;;;;;;;8.03;76.25;100675.28;5095823;28;20031;-62
2021/11/08 10:24:40;;;;;;;33.63;9.82;;;;;;;8.05;76.14;100675.31;5131672;28;20028;-63
2021/11/08 10:27:17;;;;;;;25.95;10.38;;;;;;;8.07;76.35;100679.75;5131721;28;20031;-63
2021/11/08 10:29:50;;;;;;;30.85;10.35;;;;;;;8.08;76.12;100676.34;5131184;28;20478;-63
2021/11/08 10:32:23;;;;;;;29.63;10.10;;;;;;;8.09;75.95;100666.88;5112851;28;20058;-63
2021/11/08 10:34:56;;;;;;;36.38;10.88;;;;;;;8.10;76.15;100668.63;5112901;28;20337;-62
2021/11/08 10:37:30;;;;;;;24.30;10.30;;;;;;;8.12;75.79;100669.56;5096482;28;20053;-63
2021/11/08 10:40:04;;;;;;;32.83;9.43;;;;;;;8.12;76.29;100656.66;5131093;28;20031;-63
2021/11/08 10:42:43;;;;;;;30.55;10.90;;;;;;;8.15;76.33;100661.06;5112447;28;20035;-62
2021/11/08 10:45:22;;;;;;;25.65;9.68;;;;;;;8.14;76.18;100660.19;5113072;28;20032;-64
2021/11/08 10:48:00;;;;;;;21.42;8.57;;;;;;;8.17;76.25;100662.00;5131073;28;20035;-63
2021/11/08 10:50:41;;;;;;;30.88;8.75;;;;;;;8.18;76.12;100656.00;5112618;28;20108;-63
2021/11/08 10:53:12;;;;;;;36.13;10.40;;;;;;;8.19;76.08;100645.72;5130654;28;20070;-63
2021/11/08 10:55:41;;;;;;;27.77;8.90;;;;;;;8.20;76.17;100649.19;5130824;28;20039;-63
2021/11/08 10:58:16;;;;;;;20.73;8.25;;;;;;;8.23;76.00;100641.56;5112356;28;20112;-63
2021/11/08 11:00:52;;;;;;;26.63;10.02;;;;;;;8.25;75.97;100644.19;5130405;28;20519;-62
2021/11/08 11:03:22;;;;;;;27.42;9.10;;;;;;;8.26;75.94;100643.34;5094646;28;20121;-63
2021/11/08 11:05:59;;;;;;;27.80;8.52;;;;;;;8.28;75.83;100641.72;5117281;28;20039;-62
2021/11/08 11:08:34;;;;;;;27.52;9.57;;;;;;;8.28;76.16;100647.75;5081986;28;20088;-63
2021/11/08 11:11:07;;;;;;;20.73;7.75;;;;;;;8.30;76.15;100645.22;5098845;28;20035;-63
2021/11/08 11:14:33;;;;;;;21.48;8.43;;;;;;;8.31;75.80;100634.94;5127268;27;20128;-63
2021/11/08 11:17:11;;;;;;;28.27;9.60;;;;;;;8.32;75.88;100644.44;5109695;28;20046;-62
2021/11/08 11:19:40;;;;;;;41.50;9.57;;;;;;;8.33;75.95;100640.19;5093148;28;20039;-63
2021/11/08 11:22:14;;;;;;;19.27;7.43;;;;;;;8.35;76.24;100641.09;5110313;28;20052;-63
2021/11/08 11:24:51;;;;;;;21.08;8.00;;;;;;;8.36;75.98;100640.25;5110677;28;20036;-62
2021/11/08 11:27:37;;;;;;;23.73;8.93;;;;;;;8.36;76.00;100637.69;5092665;28;20040;-63
2021/11/08 11:30:31;;;;;;;24.65;7.55;;;;;;;8.37;75.93;100635.16;5111166;28;20024;-63
2021/11/08 11:33:06;;;;;;;24.85;8.35;;;;;;;8.38;75.90;100636.03;5110320;28;20588;-63
2021/11/08 11:35:42;;;;;;;29.67;8.02;;;;;;;8.39;76.06;100635.22;5111005;28;20074;-62
2021/11/08 11:38:15;;;;;;;28.25;8.82;;;;;;;8.40;75.87;100634.38;5111118;28;20058;-63
2021/11/08 11:40:48;;;;;;;26.87;8.23;;;;;;;8.41;75.97;100635.28;5092858;28;20040;-63
2021/11/08 11:43:14;;;;;;;24.45;8.52;;;;;;;8.43;75.96;100636.19;5110820;28;20032;-62
2021/11/08 11:45:50;;;;;;;31.83;8.38;;;;;;;8.42;75.87;100640.50;5109647;28;20062;-63
2021/11/08 11:48:30;;;;;;;27.23;8.02;;;;;;;8.42;75.98;100637.91;5110127;28;20390;-63
2021/11/08 11:51:06;;;;;;;28.58;9.73;;;;;;;8.44;76.17;100633.66;5110562;28;20406;-64
2021/11/08 11:53:38;;;;;;;28.05;8.98;;;;;;;8.45;75.94;100642.28;5109414;28;20479;-63
2021/11/08 11:56:06;;;;;;;27.88;9.55;;;;;;;8.46;76.03;100642.34;5110502;28;20429;-63
2021/11/08 11:58:33;;;;;;;28.33;8.95;;;;;;;8.46;75.97;100639.78;5110230;28;20040;-63
2021/11/08 12:01:04;;;;;;;28.42;9.13;;;;;;;8.46;75.94;100639.78;5092725;28;20051;-63
2021/11/08 12:03:33;;;;;;;27.30;8.38;;;;;;;8.47;75.85;100638.94;5109810;28;20035;-63
2021/11/08 12:06:00;;;;;;;21.42;8.18;;;;;;;8.47;75.77;100630.31;5092211;28;20040;-65
2021/11/08 12:08:38;;;;;;;24.48;8.02;;;;;;;8.46;75.82;100626.84;5092170;28;20525;-64
2021/11/08 12:11:07;;;;;;;27.33;7.93;;;;;;;8.46;75.94;100619.09;5109436;28;20036;-63
2021/11/08 12:13:53;;;;;;;26.88;9.70;;;;;;;8.46;75.86;100624.28;5110215;28;20051;-63
2021/11/08 12:16:28;;;;;;;27.63;7.90;;;;;;;8.47;75.82;100619.97;5092069;28;20521;-63
2021/11/08 12:18:56;;;;;;;28.95;8.80;;;;;;;8.48;75.88;100616.59;5109336;28;20043;-63
2021/11/08 12:21:30;;;;;;;30.40;8.35;;;;;;;8.48;75.69;100620.06;5108834;28;20032;-63
2021/11/08 12:23:59;;;;;;;26.55;8.45;;;;;;;8.49;75.90;100616.63;5106798;28;20048;-63
2021/11/08 12:26:34;;;;;;;24.00;8.45;;;;;;;8.49;75.95;100614.06;5096036;28;20050;-63
2021/11/08 12:29:06;;;;;;;28.98;7.93;;;;;;;8.49;75.60;100616.63;5096204;28;20036;-64
2021/11/08 12:31:38;;;;;;;22.75;7.65;;;;;;;8.50;76.04;100618.41;5078253;28;20043;-62
2021/11/08 12:34:20;;;;;;;22.58;7.97;;;;;;;8.52;75.86;100618.47;5078644;28;20380;-62
2021/11/08 12:36:59;;;;;;;20.02;8.10;;;;;;;8.53;76.07;100609.88;5096149;28;20114;-63
2021/11/08 12:39:29;;;;;;;20.33;7.65;;;;;;;8.52;75.90;100616.75;5095255;28;20036;-64
2021/11/08 12:42:12;;;;;;;27.25;8.40;;;;;;;8.54;75.75;100621.97;5094745;28;20117;-62
2021/11/08 12:44:49;;;;;;;26.20;7.15;;;;;;;8.54;75.97;100621.97;5096364;28;20039;-62
2021/11/08 12:47:15;;;;;;;19.98;7.32;;;;;;;8.56;75.58;100624.59;5078008;28;20078;-63
2021/11/08 12:49:51;;;;;;;25.60;6.40;;;;;;;8.57;75.50;100622.06;5095613;28;20064;-63
2021/11/08 12:52:24;;;;;;;29.10;8.48;;;;;;;8.58;75.59;100626.41;5077478;28;20483;-62
2021/11/08 12:55:08;;;;;;;20.10;5.97;;;;;;;8.59;75.80;100616.97;5096242;28;20032;-63
2021/11/08 12:57:36;;;;;;;21.85;6.35;;;;;;;8.60;75.70;100610.97;5078149;28;20047;-63
2021/11/08 13:00:14;;;;;;;25.08;7.13;;;;;;;8.61;75.82;100617.91;5077734;28;20042;-63
2021/11/08 13:02:43;;;;;;;21.10;6.20;;;;;;;8.62;75.48;100599.84;5077406;28;20032;-63
2021/11/08 13:05:23;;;;;;;15.45;4.78;;;;;;;8.64;75.75;100605.09;5095983;28;20040;-64
2021/11/08 13:07:48;;;;;;;22.80;7.43;;;;;;;8.64;75.81;100607.66;5077789;28;20039;-62
2021/11/08 13:10:27;;;;;;;18.33;4.97;;;;;;;8.65;75.72;100612.88;5095524;28;20472;-63
2021/11/08 13:12:54;;;;;;;21.30;6.20;;;;;;;8.65;75.69;100611.97;5094074;28;20082;-64
2021/11/08 13:15:31;;;;;;;29.80;6.72;;;;;;;8.66;75.41;100624.06;5077423;28;20092;-63
2021/11/08 13:18:04;;;;;;;16.40;6.57;;;;;;;8.65;75.69;100617.16;5094283;28;20043;-63
2021/11/08 13:20:35;;;;;;;19.10;5.80;;;;;;;8.65;75.80;100625.78;5077473;28;20122;-63
2021/11/08 13:23:15;;;;;;;22.60;7.88;;;;;;;8.65;75.62;100627.47;5095399;28;20613;-63
2021/11/08 13:25:48;;;;;;;17.52;5.15;;;;;;;8.64;75.48;100634.38;5095318;28;20038;-62
2021/11/08 13:28:22;;;;;;;16.88;5.13;;;;;;;8.63;75.54;100616.25;5094074;28;20036;-63
2021/11/08 13:30:52;;;;;;;14.13;4.93;;;;;;;8.62;75.85;100606.72;5077511;28;20035;-63